Time;durP1;ratioP1;P1;durP2;ratioP2;P2;SDS_P1;SDS_P2;PMS_P1;PMS_P2;Temp;Humidity;BMP_temperature;BMP_pressure;BME280_temperature;BME280_humidity;BME280_pressure;Samples;Min_cycle;Max_cycle;Signal;HPM_P1;HPM_P2
2021/07/01 00:00:57;;;;;;;27.75;18.55;;;;;;;;;;5032793;28;20032;-62
2021/07/01 00:03:23;;;;;;;27.65;18.92;;;;;;;;;;5051269;28;20029;-62
2021/07/01 00:05:49;;;;;;;25.73;19.30;;;;;;;;;;5033327;28;20025;-62
2021/07/01 00:08:15;;;;;;;30.08;20.10;;;;;;;;;;5051774;28;20377;-61
2021/07/01 00:10:41;;;;;;;27.67;18.60;;;;;;;;;;5051155;28;20051;-62
2021/07/01 00:13:07;;;;;;;27.35;19.63;;;;;;;;;;5051166;28;20547;-62
2021/07/01 00:15:34;;;;;;;26.77;19.38;;;;;;;;;;5052633;28;20021;-62
2021/07/01 00:18:01;;;;;;;30.63;19.85;;;;;;;;;;5054615;28;20023;-62
2021/07/01 00:20:27;;;;;;;28.42;19.83;;;;;;;;;;5052976;28;20048;-62
2021/07/01 00:22:53;;;;;;;27.73;18.55;;;;;;;;;;5052793;28;20021;-61
2021/07/01 00:25:19;;;;;;;28.00;18.58;;;;;;;;;;5052520;28;20049;-62
2021/07/01 00:27:46;;;;;;;26.63;18.30;;;;;;;;;;5052563;28;20063;-62
2021/07/01 00:30:13;;;;;;;24.50;17.85;;;;;;;;;;5052476;28;20024;-62
2021/07/01 00:32:39;;;;;;;25.73;17.90;;;;;;;;;;5052582;28;20082;-63
2021/07/01 00:35:05;;;;;;;27.73;18.67;;;;;;;;;;5034394;28;20489;-62
2021/07/01 00:37:32;;;;;;;28.05;18.63;;;;;;;;;;5034628;28;20116;-62
2021/07/01 00:39:58;;;;;;;30.20;19.33;;;;;;;;;;5034730;28;20029;-62
2021/07/01 00:42:24;;;;;;;27.85;19.20;;;;;;;;;;5034400;28;20021;-64
2021/07/01 00:44:50;;;;;;;28.20;19.10;;;;;;;;;;5034490;28;20381;-63
2021/07/01 00:47:16;;;;;;;28.65;18.98;;;;;;;;;;5052314;28;20072;-63
2021/07/01 00:49:43;;;;;;;28.58;18.88;;;;;;;;;;5053244;28;20044;-64
2021/07/01 00:52:09;;;;;;;28.40;18.70;;;;;;;;;;5052195;28;20021;-63
2021/07/01 00:54:35;;;;;;;27.13;19.63;;;;;;;;;;5051869;28;20033;-63
2021/07/01 00:57:02;;;;;;;26.25;17.63;;;;;;;;;;5034076;28;20021;-63
2021/07/01 00:59:28;;;;;;;26.33;18.10;;;;;;;;;;5052010;28;20029;-62
2021/07/01 01:01:54;;;;;;;26.52;18.80;;;;;;;;;;5034003;28;20025;-62
2021/07/01 01:04:20;;;;;;;24.92;17.60;;;;;;;;;;5033991;28;20075;-64
2021/07/01 01:06:46;;;;;;;33.28;18.85;;;;;;;;;;5051670;28;20493;-62
2021/07/01 01:09:12;;;;;;;27.13;17.27;;;;;;;;;;5051449;28;20563;-63
2021/07/01 01:11:38;;;;;;;26.70;18.20;;;;;;;;;;5051599;28;20485;-62
2021/07/01 01:14:04;;;;;;;27.33;17.80;;;;;;;;;;5051546;28;20060;-62
2021/07/01 01:16:30;;;;;;;27.98;17.48;;;;;;;;;;5051446;28;20029;-63
2021/07/01 01:18:56;;;;;;;24.70;16.40;;;;;;;;;;5033575;28;20025;-63
2021/07/01 01:21:29;;;;;;;26.08;16.92;;;;;;;;;;5051476;28;20389;-63
2021/07/01 01:23:56;;;;;;;24.75;16.67;;;;;;;;;;5051403;28;20058;-62
2021/07/01 01:26:22;;;;;;;34.17;16.85;;;;;;;;;;5033390;28;20106;-63
2021/07/01 01:28:51;;;;;;;22.15;14.93;;;;;;;;;;5033411;28;20489;-63
2021/07/01 01:31:18;;;;;;;24.23;14.55;;;;;;;;;;5051320;28;20024;-64
2021/07/01 01:33:44;;;;;;;20.75;13.88;;;;;;;;;;5051477;28;20520;-62
2021/07/01 01:36:10;;;;;;;23.05;13.38;;;;;;;;;;5051376;28;20025;-63
2021/07/01 01:38:37;;;;;;;20.05;13.23;;;;;;;;;;5051211;28;20108;-62
2021/07/01 01:41:03;;;;;;;22.52;13.73;;;;;;;;;;5033472;28;20029;-63
2021/07/01 01:43:29;;;;;;;19.50;13.77;;;;;;;;;;5051492;28;20099;-63
2021/07/01 01:45:55;;;;;;;21.95;13.07;;;;;;;;;;5051147;28;20033;-63
2021/07/01 01:48:21;;;;;;;21.88;13.43;;;;;;;;;;5051056;28;20116;-62
2021/07/01 01:50:47;;;;;;;20.80;13.68;;;;;;;;;;5033303;28;20537;-63
2021/07/01 01:53:13;;;;;;;22.73;13.45;;;;;;;;;;5051392;28;20106;-62
2021/07/01 01:55:39;;;;;;;21.42;13.20;;;;;;;;;;5051003;28;20094;-63
2021/07/01 01:58:05;;;;;;;21.02;14.07;;;;;;;;;;5051248;28;20021;-63
2021/07/01 02:00:32;;;;;;;23.08;13.82;;;;;;;;;;5051269;28;20100;-63
2021/07/01 02:02:59;;;;;;;23.70;15.00;;;;;;;;;;5051208;28;20476;-63
2021/07/01 02:05:26;;;;;;;24.70;15.45;;;;;;;;;;5050917;28;20036;-61
2021/07/01 02:07:52;;;;;;;26.67;15.55;;;;;;;;;;5050928;28;20044;-63
2021/07/01 02:10:19;;;;;;;23.17;15.82;;;;;;;;;;5050912;28;20025;-63
2021/07/01 02:12:45;;;;;;;23.58;15.57;;;;;;;;;;5033061;28;20550;-63
2021/07/01 02:15:13;;;;;;;27.98;16.15;;;;;;;;;;5050809;28;20020;-63
2021/07/01 02:17:39;;;;;;;24.70;15.15;;;;;;;;;;5051020;28;20506;-63
2021/07/01 02:20:07;;;;;;;26.10;17.02;;;;;;;;;;5054641;28;20428;-63
2021/07/01 02:22:33;;;;;;;25.47;17.17;;;;;;;;;;5054799;28;20025;-63
2021/07/01 02:24:59;;;;;;;25.25;15.90;;;;;;;;;;5036508;28;20275;-63
2021/07/01 02:27:25;;;;;;;23.60;15.48;;;;;;;;;;5036674;28;20029;-63
2021/07/01 02:29:51;;;;;;;26.67;17.65;;;;;;;;;;5054408;28;20330;-63
2021/07/01 02:32:17;;;;;;;26.33;17.40;;;;;;;;;;5036587;28;20026;-63
2021/07/01 02:34:43;;;;;;;34.60;18.55;;;;;;;;;;5054316;28;20497;-63
2021/07/01 02:37:12;;;;;;;25.75;17.70;;;;;;;;;;5036497;28;20459;-62
2021/07/01 02:39:39;;;;;;;26.50;17.45;;;;;;;;;;5054130;28;20024;-63
2021/07/01 02:42:05;;;;;;;25.20;16.63;;;;;;;;;;5054422;28;20481;-63
2021/07/01 02:44:31;;;;;;;30.90;17.58;;;;;;;;;;5054053;28;20036;-62
2021/07/01 02:46:57;;;;;;;26.73;17.48;;;;;;;;;;5054230;28;20021;-63
2021/07/01 02:49:23;;;;;;;24.85;16.88;;;;;;;;;;5054092;28;20067;-63
2021/07/01 02:51:52;;;;;;;24.77;17.17;;;;;;;;;;5054314;28;20053;-64
2021/07/01 02:54:17;;;;;;;27.98;17.52;;;;;;;;;;5054009;28;20025;-63
2021/07/01 02:56:43;;;;;;;28.52;18.80;;;;;;;;;;5054040;28;20036;-63
2021/07/01 02:59:14;;;;;;;28.77;18.33;;;;;;;;;;5054022;28;20032;-63
2021/07/01 03:01:41;;;;;;;39.85;19.92;;;;;;;;;;5053882;28;20104;-62
2021/07/01 03:04:07;;;;;;;29.30;21.17;;;;;;;;;;5053754;28;20096;-63
2021/07/01 03:06:33;;;;;;;32.50;22.65;;;;;;;;;;5036082;28;20043;-62
2021/07/01 03:08:59;;;;;;;37.75;23.50;;;;;;;;;;5035768;28;20397;-63
2021/07/01 03:11:26;;;;;;;35.13;24.30;;;;;;;;;;5053865;28;20136;-62
2021/07/01 03:13:52;;;;;;;30.83;22.27;;;;;;;;;;5053740;28;20424;-64
2021/07/01 03:16:21;;;;;;;33.60;22.63;;;;;;;;;;5052906;28;20021;-63
2021/07/01 03:18:48;;;;;;;41.38;23.98;;;;;;;;;;5053508;28;20147;-63
2021/07/01 03:21:14;;;;;;;37.42;20.95;;;;;;;;;;5053503;28;20029;-63
2021/07/01 03:23:40;;;;;;;33.58;20.38;;;;;;;;;;5035184;28;20123;-62
2021/07/01 03:26:06;;;;;;;33.42;22.63;;;;;;;;;;5053354;28;20064;-63
2021/07/01 03:28:32;;;;;;;37.55;24.13;;;;;;;;;;5053188;28;20564;-63
2021/07/01 03:30:58;;;;;;;37.78;22.83;;;;;;;;;;5035367;28;20108;-63
2021/07/01 03:33:24;;;;;;;35.78;22.73;;;;;;;;;;5053618;28;20021;-64
2021/07/01 03:35:50;;;;;;;35.05;23.35;;;;;;;;;;5053457;28;20021;-62
2021/07/01 03:38:16;;;;;;;36.17;22.13;;;;;;;;;;5053420;28;20032;-63
2021/07/01 03:40:42;;;;;;;31.48;22.20;;;;;;;;;;5053356;28;20040;-64
2021/07/01 03:43:08;;;;;;;34.55;21.35;;;;;;;;;;5053266;28;20098;-64
2021/07/01 03:45:34;;;;;;;38.65;22.92;;;;;;;;;;5053119;28;20492;-63
2021/07/01 03:48:00;;;;;;;35.58;22.02;;;;;;;;;;5035256;28;20068;-63
2021/07/01 03:50:26;;;;;;;36.33;22.67;;;;;;;;;;5035143;28;20033;-63
2021/07/01 03:52:52;;;;;;;39.38;23.02;;;;;;;;;;5053033;28;20025;-63
2021/07/01 03:55:20;;;;;;;34.28;22.95;;;;;;;;;;5052749;28;20437;-63
2021/07/01 03:57:47;;;;;;;35.13;22.35;;;;;;;;;;5052976;28;20535;-60
2021/07/01 04:00:13;;;;;;;34.88;22.95;;;;;;;;;;5052980;28;20033;-64
2021/07/01 04:02:40;;;;;;;34.65;21.85;;;;;;;;;;5052699;28;20025;-63
2021/07/01 04:05:06;;;;;;;35.20;21.67;;;;;;;;;;5052631;28;20033;-63
2021/07/01 04:07:32;;;;;;;38.03;21.00;;;;;;;;;;5052566;28;20031;-63
2021/07/01 04:10:07;;;;;;;37.60;22.08;;;;;;;;;;5052339;28;20105;-64
2021/07/01 04:12:33;;;;;;;30.77;20.10;;;;;;;;;;5052749;28;20021;-63
2021/07/01 04:14:59;;;;;;;32.15;20.65;;;;;;;;;;5052722;28;20021;-62
2021/07/01 04:17:25;;;;;;;33.80;21.10;;;;;;;;;;5034751;28;20055;-63
2021/07/01 04:19:51;;;;;;;38.10;22.50;;;;;;;;;;5052613;28;20080;-64
2021/07/01 04:22:17;;;;;;;34.10;20.83;;;;;;;;;;5052543;28;20025;-63
2021/07/01 04:24:43;;;;;;;38.72;24.05;;;;;;;;;;5034061;28;20035;-63
2021/07/01 04:27:09;;;;;;;35.08;22.52;;;;;;;;;;5052418;28;20032;-64
2021/07/01 04:29:35;;;;;;;38.95;24.00;;;;;;;;;;5052024;28;20033;-63
2021/07/01 04:32:01;;;;;;;35.35;22.88;;;;;;;;;;5052408;28;20017;-64
2021/07/01 04:34:27;;;;;;;35.80;22.38;;;;;;;;;;5033889;28;20048;-62
2021/07/01 04:36:54;;;;;;;33.08;21.02;;;;;;;;;;5052561;28;20025;-63
2021/07/01 04:39:20;;;;;;;33.63;19.13;;;;;;;;;;5034211;28;20028;-63
2021/07/01 04:41:46;;;;;;;37.47;23.23;;;;;;;;;;5051683;28;20028;-64
2021/07/01 04:44:12;;;;;;;37.53;23.25;;;;;;;;;;5052211;28;20495;-63
2021/07/01 04:46:38;;;;;;;30.92;23.27;;;;;;;;;;5052041;28;20036;-64
2021/07/01 04:49:04;;;;;;;33.38;21.15;;;;;;;;;;5033936;28;20120;-64
2021/07/01 04:51:30;;;;;;;34.85;20.00;;;;;;;;;;5052212;28;20048;-63
2021/07/01 04:53:56;;;;;;;28.95;18.60;;;;;;;;;;5051883;28;20370;-63
2021/07/01 04:56:23;;;;;;;30.80;19.92;;;;;;;;;;5051627;28;20025;-63
2021/07/01 04:58:49;;;;;;;28.73;18.98;;;;;;;;;;5051763;28;20029;-64
2021/07/01 05:01:15;;;;;;;27.05;17.20;;;;;;;;;;5034138;28;20064;-64
2021/07/01 05:03:41;;;;;;;26.33;17.33;;;;;;;;;;5051707;28;20053;-64
2021/07/01 05:06:07;;;;;;;29.17;18.30;;;;;;;;;;5051914;28;20032;-64
2021/07/01 05:08:33;;;;;;;27.20;18.52;;;;;;;;;;5051265;28;20370;-62
2021/07/01 05:10:59;;;;;;;35.17;19.17;;;;;;;;;;5033480;28;20051;-63
2021/07/01 05:13:25;;;;;;;24.63;17.20;;;;;;;;;;5033855;28;20028;-62
2021/07/01 05:15:51;;;;;;;25.95;18.38;;;;;;;;;;5051259;28;20104;-64
2021/07/01 05:18:18;;;;;;;28.15;17.50;;;;;;;;;;5033805;28;20401;-63
2021/07/01 05:20:44;;;;;;;26.80;16.95;;;;;;;;;;5051407;28;20025;-63
2021/07/01 05:23:10;;;;;;;25.92;16.05;;;;;;;;;;5051687;28;20099;-63
2021/07/01 05:25:36;;;;;;;27.73;16.70;;;;;;;;;;5051074;28;20112;-63
2021/07/01 05:28:09;;;;;;;25.58;17.25;;;;;;;;;;5051278;28;20027;-62
2021/07/01 05:30:35;;;;;;;28.52;16.13;;;;;;;;;;5050905;28;20021;-63
2021/07/01 05:33:01;;;;;;;25.95;16.83;;;;;;;;;;5051314;28;20021;-63
2021/07/01 05:35:27;;;;;;;23.42;15.85;;;;;;;;;;5050969;28;20419;-63
2021/07/01 05:37:53;;;;;;;26.65;14.63;;;;;;;;;;5033066;28;20079;-62
2021/07/01 05:40:21;;;;;;;25.30;15.93;;;;;;;;;;5051197;28;20029;-61
2021/07/01 05:42:47;;;;;;;28.05;17.00;;;;;;;;;;5030693;28;20036;-62
2021/07/01 05:45:14;;;;;;;26.45;16.48;;;;;;;;;;5054300;28;20037;-62
2021/07/01 05:47:41;;;;;;;26.95;16.75;;;;;;;;;;5050735;28;20052;-63
2021/07/01 05:50:08;;;;;;;25.27;14.32;;;;;;;;;;5031992;28;20028;-62
2021/07/01 05:52:36;;;;;;;23.13;15.20;;;;;;;;;;5065788;28;20025;-64
2021/07/01 05:55:03;;;;;;;24.52;16.55;;;;;;;;;;5074494;28;20074;-64
2021/07/01 05:57:29;;;;;;;25.92;16.77;;;;;;;;;;5074451;28;20025;-62
2021/07/01 05:59:55;;;;;;;28.08;18.33;;;;;;;;;;5069603;28;20024;-62
2021/07/01 06:02:21;;;;;;;27.65;16.27;;;;;;;;;;5036189;28;20025;-60
2021/07/01 06:04:47;;;;;;;26.10;15.98;;;;;;;;;;5053592;28;20425;-62
2021/07/01 06:07:22;;;;;;;25.63;16.20;;;;;;;;;;5054179;28;20074;-63
2021/07/01 06:09:49;;;;;;;26.02;16.17;;;;;;;;;;5053769;28;20025;-63
2021/07/01 06:12:17;;;;;;;26.40;15.05;;;;;;;;;;5054326;28;20082;-63
2021/07/01 06:14:44;;;;;;;26.35;17.08;;;;;;;;;;5054556;28;20416;-60
2021/07/01 06:17:11;;;;;;;23.23;15.07;;;;;;;;;;5036521;28;20025;-62
2021/07/01 06:19:37;;;;;;;29.13;15.48;;;;;;;;;;5036280;28;20119;-62
2021/07/01 06:22:03;;;;;;;24.33;13.35;;;;;;;;;;5054639;28;20072;-63
2021/07/01 06:24:29;;;;;;;25.63;15.27;;;;;;;;;;5036288;28;20030;-64
2021/07/01 06:26:56;;;;;;;27.48;15.50;;;;;;;;;;5054535;28;20087;-62
2021/07/01 06:29:22;;;;;;;22.50;15.40;;;;;;;;;;5054321;28;20447;-63
2021/07/01 06:31:48;;;;;;;26.60;16.63;;;;;;;;;;5062368;28;20028;-64
2021/07/01 06:34:16;;;;;;;25.67;15.80;;;;;;;;;;5048671;28;20029;-63
2021/07/01 06:36:43;;;;;;;;;;;;;;;;;;5074649;28;20016;-64
2021/07/01 06:39:09;;;;;;;23.92;14.25;;;;;;;;;;5074117;28;19904;-63
2021/07/01 06:41:37;;;;;;;22.35;14.50;;;;;;;;;;5056528;28;20032;-63
2021/07/01 06:44:03;;;;;;;22.90;15.27;;;;;;;;;;5060689;28;20024;-63
2021/07/01 06:46:32;;;;;;;24.35;16.50;;;;;;;;;;5053738;28;20079;-63
2021/07/01 06:49:00;;;;;;;22.92;16.23;;;;;;;;;;5054504;28;20056;-64
2021/07/01 06:51:26;;;;;;;21.65;14.52;;;;;;;;;;5035993;28;20017;-64
2021/07/01 06:53:53;;;;;;;24.88;16.45;;;;;;;;;;5036372;28;20108;-59
2021/07/01 06:56:22;;;;;;;26.67;16.23;;;;;;;;;;5053863;28;20416;-62
2021/07/01 06:58:50;;;;;;;22.50;14.13;;;;;;;;;;5053543;28;20136;-64
2021/07/01 07:01:18;;;;;;;23.42;15.32;;;;;;;;;;5053693;28;20618;-63
2021/07/01 07:03:45;;;;;;;24.13;16.20;;;;;;;;;;5053698;28;20388;-63
2021/07/01 07:06:11;;;;;;;25.95;17.08;;;;;;;;;;5053860;28;20037;-63
2021/07/01 07:08:37;;;;;;;26.85;16.70;;;;;;;;;;5053592;28;20053;-64
2021/07/01 07:11:04;;;;;;;26.98;16.75;;;;;;;;;;5053911;28;20096;-63
2021/07/01 07:13:30;;;;;;;25.38;16.00;;;;;;;;;;5035354;28;20029;-63
2021/07/01 07:15:59;;;;;;;27.88;17.70;;;;;;;;;;5053157;28;20033;-62
2021/07/01 07:18:26;;;;;;;28.02;17.50;;;;;;;;;;5068489;28;20067;-63
2021/07/01 07:20:59;;;;;;;26.60;16.40;;;;;;;;;;5073250;28;20017;-64
2021/07/01 07:23:30;;;;;;;27.52;17.38;;;;;;;;;;5065765;28;20029;-64
2021/07/01 07:25:57;;;;;;;26.10;17.90;;;;;;;;;;5057489;28;20082;-63
2021/07/01 07:28:25;;;;;;;26.42;17.33;;;;;;;;;;5061793;28;20057;-63
2021/07/01 07:30:53;;;;;;;28.67;17.80;;;;;;;;;;5045395;28;20154;-64
2021/07/01 07:33:21;;;;;;;28.92;17.80;;;;;;;;;;5035239;28;20299;-63
2021/07/01 07:35:48;;;;;;;27.42;16.92;;;;;;;;;;5053162;28;20051;-63
2021/07/01 07:38:14;;;;;;;25.73;16.50;;;;;;;;;;5035362;28;20021;-63
2021/07/01 07:40:40;;;;;;;23.85;16.08;;;;;;;;;;5053021;28;20064;-64
2021/07/01 07:43:06;;;;;;;26.40;15.82;;;;;;;;;;5039090;28;20446;-63
2021/07/01 07:45:33;;;;;;;25.35;16.85;;;;;;;;;;5063216;28;20020;-64
2021/07/01 07:47:59;;;;;;;25.05;16.38;;;;;;;;;;5034879;28;20122;-63
2021/07/01 07:50:25;;;;;;;25.58;17.38;;;;;;;;;;5052788;28;20033;-62
2021/07/01 07:52:52;;;;;;;25.05;17.75;;;;;;;;;;5052726;28;20028;-63
2021/07/01 07:55:21;;;;;;;23.83;15.90;;;;;;;;;;5052682;28;20021;-64
2021/07/01 07:57:49;;;;;;;23.30;14.50;;;;;;;;;;5052804;28;20076;-64
2021/07/01 08:00:15;;;;;;;21.83;13.90;;;;;;;;;;5052804;28;20025;-65
2021/07/01 08:02:47;;;;;;;22.83;14.93;;;;;;;;;;5052736;28;20033;-65
2021/07/01 08:05:14;;;;;;;21.67;13.65;;;;;;;;;;5052483;28;20513;-65
2021/07/01 08:07:41;;;;;;;20.20;13.05;;;;;;;;;;5052533;28;20052;-65
2021/07/01 08:10:10;;;;;;;18.67;12.00;;;;;;;;;;5052412;28;20028;-64
2021/07/01 08:12:40;;;;;;;19.40;13.63;;;;;;;;;;5052698;28;20021;-65
2021/07/01 08:15:06;;;;;;;20.55;12.25;;;;;;;;;;5052038;28;20054;-65
2021/07/01 08:17:32;;;;;;;20.35;11.88;;;;;;;;;;5033763;28;20477;-65
2021/07/01 08:19:59;;;;;;;19.60;11.75;;;;;;;;;;5034556;28;20074;-64
2021/07/01 08:22:25;;;;;;;20.50;11.52;;;;;;;;;;5051996;28;20025;-65
2021/07/01 08:24:51;;;;;;;17.67;11.15;;;;;;;;;;5051744;28;20392;-65
2021/07/01 08:27:18;;;;;;;20.13;11.52;;;;;;;;;;5051893;28;20021;-64
2021/07/01 08:29:45;;;;;;;17.50;11.00;;;;;;;;;;5052402;28;20106;-65
2021/07/01 08:32:13;;;;;;;20.48;11.15;;;;;;;;;;5052234;28;20453;-65
2021/07/01 08:34:41;;;;;;;16.92;9.95;;;;;;;;;;5051889;28;20028;-63
2021/07/01 08:37:08;;;;;;;18.88;10.48;;;;;;;;;;5051913;28;20104;-64
2021/07/01 08:39:35;;;;;;;18.17;10.65;;;;;;;;;;5051763;28;20017;-64
2021/07/01 08:42:03;;;;;;;21.58;10.75;;;;;;;;;;5052058;28;20079;-63
2021/07/01 08:44:42;;;;;;;16.92;10.55;;;;;;;;;;5051648;28;20315;-63
2021/07/01 08:47:13;;;;;;;17.83;11.27;;;;;;;;;;5051956;28;20028;-63
2021/07/01 08:49:52;;;;;;;18.35;11.35;;;;;;;;;;5033142;28;20033;-65
2021/07/01 08:52:21;;;;;;;18.35;10.65;;;;;;;;;;5051774;28;20386;-63
2021/07/01 08:54:48;;;;;;;17.42;11.65;;;;;;;;;;5051426;28;20028;-64
2021/07/01 08:57:14;;;;;;;20.05;12.85;;;;;;;;;;5033745;28;20025;-65
2021/07/01 08:59:45;;;;;;;19.48;14.13;;;;;;;;;;5033399;28;20465;-65
2021/07/01 09:02:12;;;;;;;21.05;13.90;;;;;;;;;;5051285;28;20041;-65
2021/07/01 09:04:49;;;;;;;21.35;14.90;;;;;;;;;;5033353;28;20489;-63
2021/07/01 09:07:20;;;;;;;19.58;14.02;;;;;;;;;;5051687;28;20112;-65
2021/07/01 09:09:52;;;;;;;20.08;14.57;;;;;;;;;;5033553;28;20028;-64
2021/07/01 09:12:21;;;;;;;19.77;14.50;;;;;;;;;;5051583;28;20100;-66
2021/07/01 09:14:50;;;;;;;19.90;15.32;;;;;;;;;;5033019;28;20025;-65
2021/07/01 09:17:16;;;;;;;;;;;;;;;;;;5051126;28;20033;-65
2021/07/01 09:19:42;;;;;;;23.70;13.82;;;;;;;;;;5051467;28;20364;-64
2021/07/01 09:22:12;;;;;;;16.98;12.65;;;;;;;;;;5033851;28;20025;-64
2021/07/01 09:24:38;;;;;;;21.98;13.50;;;;;;;;;;5051356;28;20021;-63
2021/07/01 09:27:12;;;;;;;18.77;13.70;;;;;;;;;;5051379;28;20025;-65
2021/07/01 09:29:40;;;;;;;19.60;14.98;;;;;;;;;;5050972;28;20594;-64
2021/07/01 09:32:07;;;;;;;20.63;16.50;;;;;;;;;;5051222;28;20025;-63
2021/07/01 09:34:35;;;;;;;21.05;17.83;;;;;;;;;;5050416;28;20045;-63
2021/07/01 09:37:04;;;;;;;19.48;17.20;;;;;;;;;;5051285;28;20025;-61
2021/07/01 09:39:32;;;;;;;19.60;16.83;;;;;;;;;;5051269;28;20392;-64
2021/07/01 09:42:00;;;;;;;19.33;16.13;;;;;;;;;;5056826;28;20377;-65
2021/07/01 09:44:28;;;;;;;17.42;15.52;;;;;;;;;;5042634;28;20033;-64
2021/07/01 09:46:56;;;;;;;17.77;15.83;;;;;;;;;;5047624;28;20025;-61
2021/07/01 09:49:26;;;;;;;19.05;16.90;;;;;;;;;;5071062;28;20059;-62
2021/07/01 09:51:56;;;;;;;20.63;18.08;;;;;;;;;;5053382;28;20398;-65
2021/07/01 09:54:22;;;;;;;18.73;16.65;;;;;;;;;;5070691;28;20103;-64
2021/07/01 09:56:52;;;;;;;19.10;16.90;;;;;;;;;;5052869;28;20021;-64
2021/07/01 09:59:24;;;;;;;18.75;16.42;;;;;;;;;;5053052;28;20059;-65
2021/07/01 10:01:50;;;;;;;20.17;18.08;;;;;;;;;;5071559;28;20059;-65
2021/07/01 10:04:17;;;;;;;19.67;17.58;;;;;;;;;;5061903;28;20028;-65
2021/07/01 10:06:43;;;;;;;19.85;17.85;;;;;;;;;;5050335;28;20104;-64
2021/07/01 10:09:10;;;;;;;20.27;18.17;;;;;;;;;;5050272;28;20453;-62
2021/07/01 10:11:43;;;;;;;19.77;17.67;;;;;;;;;;5050146;28;20048;-63
2021/07/01 10:14:13;;;;;;;19.05;17.05;;;;;;;;;;5050259;28;20047;-63
2021/07/01 10:16:39;;;;;;;18.45;16.35;;;;;;;;;;5050695;28;20024;-65
2021/07/01 10:19:10;;;;;;;18.40;16.50;;;;;;;;;;5050563;28;20029;-65
2021/07/01 10:21:37;;;;;;;18.85;16.85;;;;;;;;;;5050569;28;20036;-66
2021/07/01 10:24:10;;;;;;;18.73;16.73;;;;;;;;;;5032994;28;20029;-65
2021/07/01 10:26:40;;;;;;;20.70;16.65;;;;;;;;;;5051285;28;20037;-66
2021/07/01 10:29:06;;;;;;;19.70;17.70;;;;;;;;;;5051032;28;20105;-66
2021/07/01 10:31:46;;;;;;;20.23;18.17;;;;;;;;;;5050635;28;20017;-66
2021/07/01 10:34:13;;;;;;;19.63;17.63;;;;;;;;;;5049993;28;20047;-64
2021/07/01 10:36:39;;;;;;;20.55;18.45;;;;;;;;;;5050624;28;20060;-65
2021/07/01 10:39:06;;;;;;;20.27;18.17;;;;;;;;;;5051699;28;20492;-65
2021/07/01 10:41:33;;;;;;;19.98;17.95;;;;;;;;;;5036146;28;20043;-64
2021/07/01 10:44:00;;;;;;;20.95;18.85;;;;;;;;;;5053951;28;20423;-63
2021/07/01 10:46:43;;;;;;;22.35;20.08;;;;;;;;;;5036034;28;20466;-63
2021/07/01 10:49:09;;;;;;;21.30;19.05;;;;;;;;;;5053928;28;20123;-64
2021/07/01 10:51:36;;;;;;;21.35;19.15;;;;;;;;;;5036217;28;20036;-63
2021/07/01 10:54:12;;;;;;;20.80;18.70;;;;;;;;;;5036446;28;20108;-64
2021/07/01 10:56:41;;;;;;;20.70;18.60;;;;;;;;;;5036007;28;20031;-65
2021/07/01 10:59:10;;;;;;;20.45;18.35;;;;;;;;;;5053902;28;20545;-65
2021/07/01 11:01:37;;;;;;;19.58;17.58;;;;;;;;;;5054272;28;20036;-63
2021/07/01 11:04:07;;;;;;;19.63;17.52;;;;;;;;;;5053825;28;20021;-64
2021/07/01 11:06:34;;;;;;;19.52;17.42;;;;;;;;;;5036027;28;20064;-66
2021/07/01 11:09:01;;;;;;;19.45;17.27;;;;;;;;;;5053712;28;20495;-65
2021/07/01 11:11:31;;;;;;;19.02;17.02;;;;;;;;;;5036106;28;20388;-64
2021/07/01 11:13:58;;;;;;;18.85;16.85;;;;;;;;;;5053550;28;20339;-61
2021/07/01 11:16:33;;;;;;;21.20;17.45;;;;;;;;;;5054122;28;20075;-65
2021/07/01 11:19:00;;;;;;;20.10;17.90;;;;;;;;;;5053817;28;20059;-64
2021/07/01 11:21:26;;;;;;;19.25;17.15;;;;;;;;;;5053681;28;20037;-64
2021/07/01 11:23:52;;;;;;;19.05;16.92;;;;;;;;;;5054391;28;20493;-64
2021/07/01 11:26:23;;;;;;;18.98;16.25;;;;;;;;;;5034058;28;20492;-64
2021/07/01 11:28:49;;;;;;;18.88;16.85;;;;;;;;;;5033225;28;20025;-62
2021/07/01 11:31:15;;;;;;;19.13;16.75;;;;;;;;;;5052588;28;20044;-64
2021/07/01 11:33:41;;;;;;;19.98;17.45;;;;;;;;;;5035429;28;20033;-64
2021/07/01 11:36:11;;;;;;;18.80;16.58;;;;;;;;;;5052981;28;20020;-64
2021/07/01 11:38:38;;;;;;;19.48;16.98;;;;;;;;;;5034757;28;20126;-62
2021/07/01 11:41:04;;;;;;;20.13;17.17;;;;;;;;;;5035553;28;20446;-64
2021/07/01 11:43:31;;;;;;;19.23;17.02;;;;;;;;;;5053178;28;20025;-64
2021/07/01 11:45:57;;;;;;;19.70;17.58;;;;;;;;;;5034499;28;20052;-62
2021/07/01 11:48:24;;;;;;;19.75;17.38;;;;;;;;;;5052865;28;20397;-64
2021/07/01 11:50:51;;;;;;;19.98;17.27;;;;;;;;;;5034411;28;20029;-63
2021/07/01 11:53:18;;;;;;;20.88;18.58;;;;;;;;;;5035253;28;20365;-65
2021/07/01 11:55:48;;;;;;;20.50;18.30;;;;;;;;;;5034785;28;20034;-62
2021/07/01 11:58:14;;;;;;;22.38;18.85;;;;;;;;;;5052531;28;20021;-62
2021/07/01 12:00:41;;;;;;;21.02;18.75;;;;;;;;;;5052350;28;20032;-63
2021/07/01 12:03:07;;;;;;;20.65;18.17;;;;;;;;;;5052472;28;20025;-62
2021/07/01 12:05:33;;;;;;;22.58;19.23;;;;;;;;;;5034485;28;20021;-64
2021/07/01 12:08:00;;;;;;;23.10;18.92;;;;;;;;;;5052797;28;20032;-62
2021/07/01 12:10:26;;;;;;;20.73;18.13;;;;;;;;;;5034254;28;20051;-63
2021/07/01 12:12:52;;;;;;;21.85;19.55;;;;;;;;;;5034148;28;20029;-63
2021/07/01 12:15:18;;;;;;;22.48;20.08;;;;;;;;;;5052149;28;20083;-61
2021/07/01 12:18:05;;;;;;;22.27;19.98;;;;;;;;;;5052116;28;20079;-63
2021/07/01 12:20:31;;;;;;;26.02;20.20;;;;;;;;;;5050932;28;20032;-61
2021/07/01 12:22:58;;;;;;;23.25;20.77;;;;;;;;;;5051152;28;20021;-63
2021/07/01 12:25:27;;;;;;;24.30;20.27;;;;;;;;;;5051767;28;20047;-61
2021/07/01 12:28:09;;;;;;;22.73;20.08;;;;;;;;;;5051968;28;20473;-61
2021/07/01 12:30:47;;;;;;;21.45;19.20;;;;;;;;;;5052058;28;20025;-63
2021/07/01 12:33:32;;;;;;;22.17;19.88;;;;;;;;;;5052303;28;20102;-62
2021/07/01 12:36:04;;;;;;;22.38;19.90;;;;;;;;;;5052340;28;20385;-61
2021/07/01 12:38:30;;;;;;;21.70;19.48;;;;;;;;;;5051826;28;20056;-61
2021/07/01 12:40:56;;;;;;;23.58;18.92;;;;;;;;;;5049769;28;20444;-62
2021/07/01 12:43:41;;;;;;;22.92;18.63;;;;;;;;;;5033012;28;20366;-63
2021/07/01 12:46:08;;;;;;;21.08;18.83;;;;;;;;;;5051247;28;20025;-60
2021/07/01 12:48:40;;;;;;;22.77;19.48;;;;;;;;;;5051452;28;20029;-61
2021/07/01 12:51:25;;;;;;;24.35;19.08;;;;;;;;;;5052647;28;20025;-63
2021/07/01 12:53:51;;;;;;;21.45;19.13;;;;;;;;;;5051391;28;20025;-63
2021/07/01 12:56:30;;;;;;;21.88;19.58;;;;;;;;;;5051704;28;20032;-63
2021/07/01 12:58:56;;;;;;;22.02;19.63;;;;;;;;;;5051668;28;20409;-62
2021/07/01 13:01:22;;;;;;;21.25;18.95;;;;;;;;;;5050359;28;20029;-61
2021/07/01 13:03:48;;;;;;;20.77;18.33;;;;;;;;;;5032773;28;20029;-62
2021/07/01 13:06:15;;;;;;;20.80;18.33;;;;;;;;;;5050785;28;20484;-60
2021/07/01 13:08:41;;;;;;;20.52;17.55;;;;;;;;;;5051107;28;20060;-60
2021/07/01 13:11:07;;;;;;;20.55;18.20;;;;;;;;;;5033481;28;20028;-61
2021/07/01 13:13:33;;;;;;;23.17;19.60;;;;;;;;;;5033447;28;20013;-62
2021/07/01 13:16:05;;;;;;;22.20;19.13;;;;;;;;;;5050768;28;20021;-62
2021/07/01 13:18:32;;;;;;;20.65;18.45;;;;;;;;;;5051780;28;20388;-60
2021/07/01 13:21:08;;;;;;;22.42;19.10;;;;;;;;;;5051428;28;20021;-60
2021/07/01 13:23:34;;;;;;;21.98;19.17;;;;;;;;;;5051177;28;20021;-62
2021/07/01 13:26:07;;;;;;;22.52;19.73;;;;;;;;;;5050869;28;20021;-61
2021/07/01 13:28:33;;;;;;;21.80;19.60;;;;;;;;;;5051060;28;20031;-60
2021/07/01 13:30:59;;;;;;;22.17;19.65;;;;;;;;;;5050457;28;20092;-58
2021/07/01 13:33:25;;;;;;;22.48;20.08;;;;;;;;;;5050935;28;20079;-58
2021/07/01 13:35:51;;;;;;;23.70;21.17;;;;;;;;;;5050530;28;20033;-60
2021/07/01 13:38:21;;;;;;;23.10;19.90;;;;;;;;;;5051063;28;20025;-59
2021/07/01 13:40:48;;;;;;;24.25;20.98;;;;;;;;;;5032832;28;20611;-59
2021/07/01 13:43:18;;;;;;;27.73;22.02;;;;;;;;;;5032601;28;20025;-60
2021/07/01 13:45:46;;;;;;;25.83;23.00;;;;;;;;;;5050706;28;20473;-59
2021/07/01 13:48:18;;;;;;;25.98;23.13;;;;;;;;;;5050721;28;20044;-60
2021/07/01 13:50:46;;;;;;;28.85;23.45;;;;;;;;;;5053008;28;20143;-59
2021/07/01 13:53:18;;;;;;;28.13;23.92;;;;;;;;;;5060479;28;20017;-61
2021/07/01 13:55:45;;;;;;;28.50;24.33;;;;;;;;;;5056344;28;20036;-60
2021/07/01 13:58:12;;;;;;;36.20;26.65;;;;;;;;;;5060085;28;20113;-59
2021/07/01 14:00:40;;;;;;;34.92;25.23;;;;;;;;;;5058553;28;20032;-59
2021/07/01 14:03:13;;;;;;;37.05;26.90;;;;;;;;;;5056811;28;20028;-56
2021/07/01 14:05:47;;;;;;;34.10;25.13;;;;;;;;;;5059254;28;20400;-58
2021/07/01 14:08:33;;;;;;;37.88;29.08;;;;;;;;;;5060255;28;20034;-58
2021/07/01 14:11:01;;;;;;;36.78;28.38;;;;;;;;;;5030407;28;20032;-61
2021/07/01 14:13:27;;;;;;;41.72;30.13;;;;;;;;;;4684093;28;10000222;-59
2021/07/01 14:15:54;;;;;;;39.17;30.45;;;;;;;;;;5032897;28;20033;-60
2021/07/01 14:18:20;;;;;;;36.25;29.50;;;;;;;;;;5051304;28;20025;-59
2021/07/01 14:20:46;;;;;;;46.15;31.63;;;;;;;;;;5051305;28;20025;-60